sensor_id;sensor_type;location;lat;lon;timestamp;P1;durP1;ratioP1;P2;durP2;ratioP2
19187;SDS011;9726;52.198;8.792;2023-02-08T00:02:08;95.90;;;34.60;;
19187;SDS011;9726;52.198;8.792;2023-02-08T00:04:36;84.43;;;29.70;;
19187;SDS011;9726;52.198;8.792;2023-02-08T00:07:03;100.70;;;32.93;;
19187;SDS011;9726;52.198;8.792;2023-02-08T00:09:30;84.67;;;30.03;;
19187;SDS011;9726;52.198;8.792;2023-02-08T00:11:58;84.23;;;30.23;;
19187;SDS011;9726;52.198;8.792;2023-02-08T00:14:25;95.03;;;33.97;;
19187;SDS011;9726;52.198;8.792;2023-02-08T00:16:52;106.47;;;37.67;;
19187;SDS011;9726;52.198;8.792;2023-02-08T00:19:20;106.30;;;36.80;;
19187;SDS011;9726;52.198;8.792;2023-02-08T00:21:47;121.03;;;36.83;;
19187;SDS011;9726;52.198;8.792;2023-02-08T00:24:15;108.60;;;37.30;;
19187;SDS011;9726;52.198;8.792;2023-02-08T00:26:42;130.50;;;40.67;;
19187;SDS011;9726;52.198;8.792;2023-02-08T00:29:09;118.23;;;38.17;;
19187;SDS011;9726;52.198;8.792;2023-02-08T00:31:37;114.50;;;38.63;;
19187;SDS011;9726;52.198;8.792;2023-02-08T00:34:05;103.67;;;35.70;;
19187;SDS011;9726;52.198;8.792;2023-02-08T00:36:32;114.03;;;37.53;;
19187;SDS011;9726;52.198;8.792;2023-02-08T00:39:00;100.90;;;33.77;;
19187;SDS011;9726;52.198;8.792;2023-02-08T00:41:27;66.23;;;25.43;;
19187;SDS011;9726;52.198;8.792;2023-02-08T00:43:54;56.00;;;23.90;;
19187;SDS011;9726;52.198;8.792;2023-02-08T00:46:22;53.33;;;21.50;;
19187;SDS011;9726;52.198;8.792;2023-02-08T00:48:49;64.37;;;26.60;;
19187;SDS011;9726;52.198;8.792;2023-02-08T00:51:17;84.47;;;30.47;;
19187;SDS011;9726;52.198;8.792;2023-02-08T00:53:44;72.43;;;26.93;;
19187;SDS011;9726;52.198;8.792;2023-02-08T00:56:13;61.57;;;24.33;;
19187;SDS011;9726;52.198;8.792;2023-02-08T00:58:41;50.40;;;21.70;;
19187;SDS011;9726;52.198;8.792;2023-02-08T01:01:09;44.17;;;19.23;;
19187;SDS011;9726;52.198;8.792;2023-02-08T01:03:38;49.83;;;21.27;;
19187;SDS011;9726;52.198;8.792;2023-02-08T01:06:07;39.10;;;19.03;;
19187;SDS011;9726;52.198;8.792;2023-02-08T01:08:35;47.00;;;20.47;;
19187;SDS011;9726;52.198;8.792;2023-02-08T01:11:04;63.33;;;22.03;;
19187;SDS011;9726;52.198;8.792;2023-02-08T01:13:31;96.53;;;31.77;;
19187;SDS011;9726;52.198;8.792;2023-02-08T01:16:11;63.73;;;23.30;;
19187;SDS011;9726;52.198;8.792;2023-02-08T01:18:39;54.80;;;23.03;;
19187;SDS011;9726;52.198;8.792;2023-02-08T01:21:12;55.87;;;23.87;;
19187;SDS011;9726;52.198;8.792;2023-02-08T01:23:39;55.40;;;22.87;;
19187;SDS011;9726;52.198;8.792;2023-02-08T01:26:07;58.33;;;22.77;;
19187;SDS011;9726;52.198;8.792;2023-02-08T01:28:36;48.53;;;22.00;;
19187;SDS011;9726;52.198;8.792;2023-02-08T01:31:14;64.37;;;22.33;;
19187;SDS011;9726;52.198;8.792;2023-02-08T01:33:42;54.07;;;23.67;;
19187;SDS011;9726;52.198;8.792;2023-02-08T01:36:09;64.07;;;23.40;;
19187;SDS011;9726;52.198;8.792;2023-02-08T01:38:37;60.40;;;23.37;;
19187;SDS011;9726;52.198;8.792;2023-02-08T01:41:06;67.43;;;26.07;;
19187;SDS011;9726;52.198;8.792;2023-02-08T01:46:22;65.13;;;25.20;;
19187;SDS011;9726;52.198;8.792;2023-02-08T01:48:50;52.90;;;22.03;;
19187;SDS011;9726;52.198;8.792;2023-02-08T01:51:20;48.03;;;21.83;;
19187;SDS011;9726;52.198;8.792;2023-02-08T01:53:50;55.17;;;22.50;;
19187;SDS011;9726;52.198;8.792;2023-02-08T01:56:20;60.13;;;24.00;;
19187;SDS011;9726;52.198;8.792;2023-02-08T01:58:51;45.00;;;20.67;;
19187;SDS011;9726;52.198;8.792;2023-02-08T02:01:19;49.40;;;22.40;;
19187;SDS011;9726;52.198;8.792;2023-02-08T02:03:47;47.97;;;20.33;;
19187;SDS011;9726;52.198;8.792;2023-02-08T02:06:16;53.77;;;20.73;;
19187;SDS011;9726;52.198;8.792;2023-02-08T02:08:46;55.70;;;22.07;;
19187;SDS011;9726;52.198;8.792;2023-02-08T02:11:15;56.47;;;23.10;;
19187;SDS011;9726;52.198;8.792;2023-02-08T02:13:43;57.07;;;22.70;;
19187;SDS011;9726;52.198;8.792;2023-02-08T02:16:13;55.77;;;22.90;;
19187;SDS011;9726;52.198;8.792;2023-02-08T02:18:40;65.00;;;22.97;;
19187;SDS011;9726;52.198;8.792;2023-02-08T02:34:19;61.00;;;23.17;;
19187;SDS011;9726;52.198;8.792;2023-02-08T02:39:37;59.20;;;23.40;;
19187;SDS011;9726;52.198;8.792;2023-02-08T02:45:15;56.83;;;22.10;;
19187;SDS011;9726;52.198;8.792;2023-02-08T02:50:46;54.20;;;21.90;;
19187;SDS011;9726;52.198;8.792;2023-02-08T02:56:05;50.17;;;21.43;;
19187;SDS011;9726;52.198;8.792;2023-02-08T02:58:35;50.93;;;20.07;;
19187;SDS011;9726;52.198;8.792;2023-02-08T03:01:03;49.73;;;21.00;;
19187;SDS011;9726;52.198;8.792;2023-02-08T03:03:32;59.60;;;20.57;;
19187;SDS011;9726;52.198;8.792;2023-02-08T03:06:02;49.07;;;21.50;;
19187;SDS011;9726;52.198;8.792;2023-02-08T03:11:25;46.57;;;20.10;;
19187;SDS011;9726;52.198;8.792;2023-02-08T03:21:26;41.70;;;18.50;;
19187;SDS011;9726;52.198;8.792;2023-02-08T03:26:29;44.27;;;19.60;;
19187;SDS011;9726;52.198;8.792;2023-02-08T03:29:01;51.20;;;20.97;;
19187;SDS011;9726;52.198;8.792;2023-02-08T03:39:05;46.63;;;20.67;;
19187;SDS011;9726;52.198;8.792;2023-02-08T03:41:35;50.53;;;19.83;;
19187;SDS011;9726;52.198;8.792;2023-02-08T03:44:12;49.87;;;21.13;;
19187;SDS011;9726;52.198;8.792;2023-02-08T03:49:37;45.57;;;20.87;;
19187;SDS011;9726;52.198;8.792;2023-02-08T03:52:05;43.37;;;20.07;;
19187;SDS011;9726;52.198;8.792;2023-02-08T03:54:35;55.50;;;20.47;;
19187;SDS011;9726;52.198;8.792;2023-02-08T03:57:05;44.43;;;19.60;;
19187;SDS011;9726;52.198;8.792;2023-02-08T03:59:40;46.13;;;19.43;;
19187;SDS011;9726;52.198;8.792;2023-02-08T04:02:12;39.40;;;19.53;;
19187;SDS011;9726;52.198;8.792;2023-02-08T04:04:42;42.63;;;19.33;;
19187;SDS011;9726;52.198;8.792;2023-02-08T04:07:12;43.10;;;19.33;;
19187;SDS011;9726;52.198;8.792;2023-02-08T04:09:39;43.23;;;19.20;;
19187;SDS011;9726;52.198;8.792;2023-02-08T04:12:07;41.33;;;19.37;;
19187;SDS011;9726;52.198;8.792;2023-02-08T04:14:34;42.70;;;19.07;;
19187;SDS011;9726;52.198;8.792;2023-02-08T04:17:02;39.10;;;18.07;;
19187;SDS011;9726;52.198;8.792;2023-02-08T04:19:29;51.67;;;21.10;;
19187;SDS011;9726;52.198;8.792;2023-02-08T04:21:57;35.80;;;17.70;;
19187;SDS011;9726;52.198;8.792;2023-02-08T04:24:24;36.03;;;19.37;;
19187;SDS011;9726;52.198;8.792;2023-02-08T04:26:51;40.30;;;17.80;;
19187;SDS011;9726;52.198;8.792;2023-02-08T04:29:19;45.83;;;18.80;;
19187;SDS011;9726;52.198;8.792;2023-02-08T04:31:46;39.97;;;17.90;;
19187;SDS011;9726;52.198;8.792;2023-02-08T04:34:14;44.97;;;19.63;;
19187;SDS011;9726;52.198;8.792;2023-02-08T04:36:41;47.37;;;19.10;;
19187;SDS011;9726;52.198;8.792;2023-02-08T04:39:08;38.13;;;18.03;;
19187;SDS011;9726;52.198;8.792;2023-02-08T04:41:35;41.63;;;18.43;;
19187;SDS011;9726;52.198;8.792;2023-02-08T04:44:03;37.43;;;17.03;;
19187;SDS011;9726;52.198;8.792;2023-02-08T04:46:30;41.47;;;18.83;;
19187;SDS011;9726;52.198;8.792;2023-02-08T04:48:58;45.90;;;19.47;;
19187;SDS011;9726;52.198;8.792;2023-02-08T04:51:25;44.77;;;18.90;;
19187;SDS011;9726;52.198;8.792;2023-02-08T04:53:52;36.50;;;18.80;;
19187;SDS011;9726;52.198;8.792;2023-02-08T04:56:20;37.27;;;18.07;;
19187;SDS011;9726;52.198;8.792;2023-02-08T04:58:48;44.13;;;20.23;;
19187;SDS011;9726;52.198;8.792;2023-02-08T05:01:15;46.40;;;19.67;;
19187;SDS011;9726;52.198;8.792;2023-02-08T05:03:43;46.03;;;20.10;;
19187;SDS011;9726;52.198;8.792;2023-02-08T05:06:10;50.20;;;20.90;;
19187;SDS011;9726;52.198;8.792;2023-02-08T05:08:38;43.43;;;20.10;;
19187;SDS011;9726;52.198;8.792;2023-02-08T05:11:05;39.47;;;19.43;;
19187;SDS011;9726;52.198;8.792;2023-02-08T05:13:33;48.20;;;20.83;;
19187;SDS011;9726;52.198;8.792;2023-02-08T05:16:00;36.80;;;17.43;;
19187;SDS011;9726;52.198;8.792;2023-02-08T05:18:28;39.53;;;18.00;;
19187;SDS011;9726;52.198;8.792;2023-02-08T05:20:56;38.33;;;18.33;;
19187;SDS011;9726;52.198;8.792;2023-02-08T05:23:24;40.00;;;18.70;;
19187;SDS011;9726;52.198;8.792;2023-02-08T05:25:51;44.37;;;20.03;;
19187;SDS011;9726;52.198;8.792;2023-02-08T05:28:18;40.10;;;19.33;;
19187;SDS011;9726;52.198;8.792;2023-02-08T05:30:46;46.73;;;19.70;;
19187;SDS011;9726;52.198;8.792;2023-02-08T05:33:13;45.10;;;18.87;;
19187;SDS011;9726;52.198;8.792;2023-02-08T05:35:42;43.97;;;20.70;;
19187;SDS011;9726;52.198;8.792;2023-02-08T05:38:10;45.10;;;20.53;;
19187;SDS011;9726;52.198;8.792;2023-02-08T05:40:37;35.03;;;18.23;;
19187;SDS011;9726;52.198;8.792;2023-02-08T05:43:05;41.53;;;18.67;;
19187;SDS011;9726;52.198;8.792;2023-02-08T05:45:32;38.97;;;18.10;;
19187;SDS011;9726;52.198;8.792;2023-02-08T05:48:00;49.23;;;20.47;;
19187;SDS011;9726;52.198;8.792;2023-02-08T05:50:27;49.13;;;17.93;;
19187;SDS011;9726;52.198;8.792;2023-02-08T05:52:55;42.57;;;17.70;;
19187;SDS011;9726;52.198;8.792;2023-02-08T05:55:22;37.73;;;17.27;;
19187;SDS011;9726;52.198;8.792;2023-02-08T05:57:51;39.73;;;17.80;;
19187;SDS011;9726;52.198;8.792;2023-02-08T06:00:18;39.37;;;17.77;;
19187;SDS011;9726;52.198;8.792;2023-02-08T06:02:46;41.40;;;19.23;;
19187;SDS011;9726;52.198;8.792;2023-02-08T06:05:14;49.17;;;19.47;;
19187;SDS011;9726;52.198;8.792;2023-02-08T06:07:41;40.40;;;18.83;;
19187;SDS011;9726;52.198;8.792;2023-02-08T06:10:09;196.87;;;27.87;;
19187;SDS011;9726;52.198;8.792;2023-02-08T06:12:37;43.77;;;20.33;;
19187;SDS011;9726;52.198;8.792;2023-02-08T06:15:04;46.83;;;20.50;;
19187;SDS011;9726;52.198;8.792;2023-02-08T06:17:31;42.37;;;18.53;;
19187;SDS011;9726;52.198;8.792;2023-02-08T06:19:59;43.77;;;19.70;;
19187;SDS011;9726;52.198;8.792;2023-02-08T06:22:26;39.03;;;18.77;;
19187;SDS011;9726;52.198;8.792;2023-02-08T06:24:53;40.37;;;18.37;;
19187;SDS011;9726;52.198;8.792;2023-02-08T06:27:21;41.37;;;18.33;;
19187;SDS011;9726;52.198;8.792;2023-02-08T06:29:48;36.27;;;18.83;;
19187;SDS011;9726;52.198;8.792;2023-02-08T06:32:15;46.93;;;18.97;;
19187;SDS011;9726;52.198;8.792;2023-02-08T06:34:44;33.70;;;17.17;;
19187;SDS011;9726;52.198;8.792;2023-02-08T06:37:13;46.87;;;18.70;;
19187;SDS011;9726;52.198;8.792;2023-02-08T06:39:40;39.10;;;18.53;;
19187;SDS011;9726;52.198;8.792;2023-02-08T06:42:08;41.27;;;18.93;;
19187;SDS011;9726;52.198;8.792;2023-02-08T06:44:35;37.87;;;16.90;;
19187;SDS011;9726;52.198;8.792;2023-02-08T06:47:03;50.53;;;21.30;;
19187;SDS011;9726;52.198;8.792;2023-02-08T06:49:31;43.40;;;20.77;;
19187;SDS011;9726;52.198;8.792;2023-02-08T06:51:58;46.80;;;19.93;;
19187;SDS011;9726;52.198;8.792;2023-02-08T06:54:25;39.10;;;18.10;;
19187;SDS011;9726;52.198;8.792;2023-02-08T06:56:53;41.07;;;16.70;;
19187;SDS011;9726;52.198;8.792;2023-02-08T06:59:20;46.30;;;20.30;;
19187;SDS011;9726;52.198;8.792;2023-02-08T07:01:47;39.57;;;18.13;;
19187;SDS011;9726;52.198;8.792;2023-02-08T07:04:16;44.17;;;18.17;;
19187;SDS011;9726;52.198;8.792;2023-02-08T07:06:46;43.17;;;19.43;;
19187;SDS011;9726;52.198;8.792;2023-02-08T07:09:13;42.53;;;18.70;;
19187;SDS011;9726;52.198;8.792;2023-02-08T07:11:40;49.60;;;20.40;;
19187;SDS011;9726;52.198;8.792;2023-02-08T07:14:10;48.10;;;20.03;;
19187;SDS011;9726;52.198;8.792;2023-02-08T07:16:38;43.23;;;20.27;;
19187;SDS011;9726;52.198;8.792;2023-02-08T07:19:06;51.57;;;20.97;;
19187;SDS011;9726;52.198;8.792;2023-02-08T07:21:33;45.53;;;19.73;;
19187;SDS011;9726;52.198;8.792;2023-02-08T07:24:00;45.97;;;20.30;;
19187;SDS011;9726;52.198;8.792;2023-02-08T07:26:28;44.10;;;18.60;;
19187;SDS011;9726;52.198;8.792;2023-02-08T07:28:58;50.73;;;18.70;;
19187;SDS011;9726;52.198;8.792;2023-02-08T07:31:25;47.07;;;20.60;;
19187;SDS011;9726;52.198;8.792;2023-02-08T07:33:53;38.23;;;19.17;;
19187;SDS011;9726;52.198;8.792;2023-02-08T07:36:20;46.90;;;20.23;;
19187;SDS011;9726;52.198;8.792;2023-02-08T07:38:48;42.27;;;18.80;;
19187;SDS011;9726;52.198;8.792;2023-02-08T07:41:15;44.77;;;19.23;;
19187;SDS011;9726;52.198;8.792;2023-02-08T07:43:42;45.37;;;20.13;;
19187;SDS011;9726;52.198;8.792;2023-02-08T07:46:17;51.93;;;21.83;;
19187;SDS011;9726;52.198;8.792;2023-02-08T07:48:45;41.93;;;20.20;;
19187;SDS011;9726;52.198;8.792;2023-02-08T07:51:14;42.90;;;20.13;;
19187;SDS011;9726;52.198;8.792;2023-02-08T07:53:42;42.57;;;21.13;;
19187;SDS011;9726;52.198;8.792;2023-02-08T07:56:09;52.10;;;21.23;;
19187;SDS011;9726;52.198;8.792;2023-02-08T07:58:37;52.50;;;22.57;;
19187;SDS011;9726;52.198;8.792;2023-02-08T08:01:04;59.00;;;23.57;;
19187;SDS011;9726;52.198;8.792;2023-02-08T08:03:47;47.10;;;23.17;;
19187;SDS011;9726;52.198;8.792;2023-02-08T08:06:15;55.83;;;22.47;;
19187;SDS011;9726;52.198;8.792;2023-02-08T08:08:42;47.93;;;23.27;;
19187;SDS011;9726;52.198;8.792;2023-02-08T08:11:13;47.87;;;21.97;;
19187;SDS011;9726;52.198;8.792;2023-02-08T08:13:40;60.43;;;22.63;;
19187;SDS011;9726;52.198;8.792;2023-02-08T08:16:08;55.23;;;24.87;;
19187;SDS011;9726;52.198;8.792;2023-02-08T08:18:35;48.80;;;21.87;;
19187;SDS011;9726;52.198;8.792;2023-02-08T08:21:03;56.03;;;24.37;;
19187;SDS011;9726;52.198;8.792;2023-02-08T08:23:30;54.03;;;23.57;;
19187;SDS011;9726;52.198;8.792;2023-02-08T08:26:15;50.40;;;23.43;;
19187;SDS011;9726;52.198;8.792;2023-02-08T08:28:43;52.17;;;23.60;;
19187;SDS011;9726;52.198;8.792;2023-02-08T08:31:13;53.60;;;24.03;;
19187;SDS011;9726;52.198;8.792;2023-02-08T08:33:42;56.27;;;24.67;;
19187;SDS011;9726;52.198;8.792;2023-02-08T08:36:09;49.47;;;22.70;;
19187;SDS011;9726;52.198;8.792;2023-02-08T08:38:37;53.63;;;23.73;;
19187;SDS011;9726;52.198;8.792;2023-02-08T08:41:11;52.30;;;23.57;;
19187;SDS011;9726;52.198;8.792;2023-02-08T08:43:43;65.87;;;24.30;;
19187;SDS011;9726;52.198;8.792;2023-02-08T08:46:11;57.90;;;24.40;;
19187;SDS011;9726;52.198;8.792;2023-02-08T08:48:38;55.00;;;25.00;;
19187;SDS011;9726;52.198;8.792;2023-02-08T08:51:06;54.37;;;24.57;;
19187;SDS011;9726;52.198;8.792;2023-02-08T08:53:34;50.47;;;22.43;;
19187;SDS011;9726;52.198;8.792;2023-02-08T08:56:03;55.63;;;24.37;;
19187;SDS011;9726;52.198;8.792;2023-02-08T08:58:30;54.27;;;23.43;;
19187;SDS011;9726;52.198;8.792;2023-02-08T09:00:58;54.67;;;25.77;;
19187;SDS011;9726;52.198;8.792;2023-02-08T09:03:26;52.83;;;23.00;;
19187;SDS011;9726;52.198;8.792;2023-02-08T09:05:54;55.37;;;24.37;;
19187;SDS011;9726;52.198;8.792;2023-02-08T09:08:21;52.40;;;24.43;;
19187;SDS011;9726;52.198;8.792;2023-02-08T09:10:49;50.50;;;23.10;;
19187;SDS011;9726;52.198;8.792;2023-02-08T09:13:16;56.33;;;25.10;;
19187;SDS011;9726;52.198;8.792;2023-02-08T09:15:47;51.03;;;24.40;;
19187;SDS011;9726;52.198;8.792;2023-02-08T09:18:15;53.40;;;24.63;;
19187;SDS011;9726;52.198;8.792;2023-02-08T09:20:42;42.67;;;22.03;;
19187;SDS011;9726;52.198;8.792;2023-02-08T09:23:10;57.67;;;24.67;;
19187;SDS011;9726;52.198;8.792;2023-02-08T09:25:39;50.07;;;24.63;;
19187;SDS011;9726;52.198;8.792;2023-02-08T09:28:07;51.00;;;23.77;;
19187;SDS011;9726;52.198;8.792;2023-02-08T09:30:34;54.50;;;23.50;;
19187;SDS011;9726;52.198;8.792;2023-02-08T09:33:02;50.07;;;23.80;;
19187;SDS011;9726;52.198;8.792;2023-02-08T09:35:29;51.33;;;23.33;;
19187;SDS011;9726;52.198;8.792;2023-02-08T09:37:57;52.43;;;23.77;;
19187;SDS011;9726;52.198;8.792;2023-02-08T09:40:30;58.47;;;25.00;;
19187;SDS011;9726;52.198;8.792;2023-02-08T09:43:12;48.07;;;24.03;;
19187;SDS011;9726;52.198;8.792;2023-02-08T09:45:50;49.17;;;22.60;;
19187;SDS011;9726;52.198;8.792;2023-02-08T09:48:28;50.63;;;23.23;;
19187;SDS011;9726;52.198;8.792;2023-02-08T09:53:45;43.47;;;22.30;;
19187;SDS011;9726;52.198;8.792;2023-02-08T09:56:18;56.63;;;21.00;;
19187;SDS011;9726;52.198;8.792;2023-02-08T09:58:51;44.90;;;22.37;;
19187;SDS011;9726;52.198;8.792;2023-02-08T10:03:51;46.03;;;22.60;;
19187;SDS011;9726;52.198;8.792;2023-02-08T10:06:19;45.57;;;21.50;;
19187;SDS011;9726;52.198;8.792;2023-02-08T10:08:48;41.90;;;21.50;;
19187;SDS011;9726;52.198;8.792;2023-02-08T10:19:07;39.83;;;19.17;;
19187;SDS011;9726;52.198;8.792;2023-02-08T10:21:51;41.70;;;18.77;;
19187;SDS011;9726;52.198;8.792;2023-02-08T10:26:55;40.43;;;18.07;;
19187;SDS011;9726;52.198;8.792;2023-02-08T10:34:48;38.33;;;17.83;;
19187;SDS011;9726;52.198;8.792;2023-02-08T10:37:36;38.60;;;17.77;;
19187;SDS011;9726;52.198;8.792;2023-02-08T10:42:47;32.03;;;17.37;;
19187;SDS011;9726;52.198;8.792;2023-02-08T10:45:25;34.73;;;17.60;;
19187;SDS011;9726;52.198;8.792;2023-02-08T10:48:01;30.97;;;16.03;;
19187;SDS011;9726;52.198;8.792;2023-02-08T10:52:57;33.73;;;15.53;;
19187;SDS011;9726;52.198;8.792;2023-02-08T10:55:24;33.80;;;16.50;;
19187;SDS011;9726;52.198;8.792;2023-02-08T10:57:54;32.00;;;17.07;;
19187;SDS011;9726;52.198;8.792;2023-02-08T11:00:26;37.57;;;18.27;;
19187;SDS011;9726;52.198;8.792;2023-02-08T11:02:55;37.13;;;15.80;;
19187;SDS011;9726;52.198;8.792;2023-02-08T11:05:33;28.83;;;15.03;;
19187;SDS011;9726;52.198;8.792;2023-02-08T11:10:32;29.97;;;15.07;;
19187;SDS011;9726;52.198;8.792;2023-02-08T11:13:00;28.50;;;14.73;;
19187;SDS011;9726;52.198;8.792;2023-02-08T11:18:02;31.23;;;15.70;;
19187;SDS011;9726;52.198;8.792;2023-02-08T11:20:31;34.53;;;17.20;;
19187;SDS011;9726;52.198;8.792;2023-02-08T11:23:03;30.33;;;15.27;;
19187;SDS011;9726;52.198;8.792;2023-02-08T11:25:33;35.40;;;15.43;;
19187;SDS011;9726;52.198;8.792;2023-02-08T11:28:01;30.87;;;15.10;;
19187;SDS011;9726;52.198;8.792;2023-02-08T11:30:29;27.67;;;13.20;;
19187;SDS011;9726;52.198;8.792;2023-02-08T11:33:12;27.63;;;13.60;;
19187;SDS011;9726;52.198;8.792;2023-02-08T11:35:40;24.73;;;13.83;;
19187;SDS011;9726;52.198;8.792;2023-02-08T11:38:15;23.77;;;13.27;;
19187;SDS011;9726;52.198;8.792;2023-02-08T11:40:44;32.70;;;13.60;;
19187;SDS011;9726;52.198;8.792;2023-02-08T11:43:19;25.77;;;13.13;;
19187;SDS011;9726;52.198;8.792;2023-02-08T11:45:47;23.23;;;13.57;;
19187;SDS011;9726;52.198;8.792;2023-02-08T11:48:57;25.23;;;13.73;;
19187;SDS011;9726;52.198;8.792;2023-02-08T11:51:05;24.57;;;13.50;;
19187;SDS011;9726;52.198;8.792;2023-02-08T11:53:34;31.50;;;13.70;;
19187;SDS011;9726;52.198;8.792;2023-02-08T11:56:05;22.53;;;12.53;;
19187;SDS011;9726;52.198;8.792;2023-02-08T11:58:33;27.33;;;12.93;;
19187;SDS011;9726;52.198;8.792;2023-02-08T12:01:01;25.23;;;12.67;;
19187;SDS011;9726;52.198;8.792;2023-02-08T12:03:38;26.90;;;13.73;;
19187;SDS011;9726;52.198;8.792;2023-02-08T12:08:56;22.47;;;11.43;;
19187;SDS011;9726;52.198;8.792;2023-02-08T12:11:27;24.20;;;13.13;;
19187;SDS011;9726;52.198;8.792;2023-02-08T12:16:37;21.17;;;11.23;;
19187;SDS011;9726;52.198;8.792;2023-02-08T12:22:12;19.30;;;9.60;;
19187;SDS011;9726;52.198;8.792;2023-02-08T12:24:47;23.67;;;11.83;;
19187;SDS011;9726;52.198;8.792;2023-02-08T12:29:49;18.97;;;10.40;;
19187;SDS011;9726;52.198;8.792;2023-02-08T12:37:32;23.27;;;11.07;;
19187;SDS011;9726;52.198;8.792;2023-02-08T12:46:00;22.40;;;11.13;;
19187;SDS011;9726;52.198;8.792;2023-02-08T12:51:18;18.03;;;10.37;;
19187;SDS011;9726;52.198;8.792;2023-02-08T12:53:59;21.47;;;11.23;;
19187;SDS011;9726;52.198;8.792;2023-02-08T12:56:31;21.60;;;10.77;;
19187;SDS011;9726;52.198;8.792;2023-02-08T12:59:01;18.90;;;10.47;;
19187;SDS011;9726;52.198;8.792;2023-02-08T13:01:43;18.20;;;11.07;;
19187;SDS011;9726;52.198;8.792;2023-02-08T13:04:12;19.97;;;9.53;;
19187;SDS011;9726;52.198;8.792;2023-02-08T13:06:42;21.10;;;10.43;;
19187;SDS011;9726;52.198;8.792;2023-02-08T13:09:21;19.20;;;10.07;;
19187;SDS011;9726;52.198;8.792;2023-02-08T13:12:01;20.63;;;10.43;;
19187;SDS011;9726;52.198;8.792;2023-02-08T13:16:58;23.07;;;10.13;;
19187;SDS011;9726;52.198;8.792;2023-02-08T13:22:00;16.47;;;8.87;;
19187;SDS011;9726;52.198;8.792;2023-02-08T13:24:33;16.73;;;8.63;;
19187;SDS011;9726;52.198;8.792;2023-02-08T13:27:01;17.40;;;8.53;;
19187;SDS011;9726;52.198;8.792;2023-02-08T13:29:32;15.83;;;9.20;;
19187;SDS011;9726;52.198;8.792;2023-02-08T13:32:20;19.87;;;8.97;;
19187;SDS011;9726;52.198;8.792;2023-02-08T13:34:56;18.73;;;9.00;;
19187;SDS011;9726;52.198;8.792;2023-02-08T13:37:24;15.53;;;8.67;;
19187;SDS011;9726;52.198;8.792;2023-02-08T13:42:35;18.63;;;8.20;;
19187;SDS011;9726;52.198;8.792;2023-02-08T13:45:03;12.67;;;7.80;;
19187;SDS011;9726;52.198;8.792;2023-02-08T13:47:42;8.93;;;5.40;;
19187;SDS011;9726;52.198;8.792;2023-02-08T13:52:57;18.00;;;7.07;;
19187;SDS011;9726;52.198;8.792;2023-02-08T13:58:00;14.90;;;6.87;;
19187;SDS011;9726;52.198;8.792;2023-02-08T14:00:28;14.60;;;8.87;;
19187;SDS011;9726;52.198;8.792;2023-02-08T14:02:58;10.97;;;6.70;;
19187;SDS011;9726;52.198;8.792;2023-02-08T14:05:32;20.57;;;6.43;;
19187;SDS011;9726;52.198;8.792;2023-02-08T14:08:00;12.77;;;6.27;;
19187;SDS011;9726;52.198;8.792;2023-02-08T14:15:29;13.47;;;6.67;;
19187;SDS011;9726;52.198;8.792;2023-02-08T14:17:56;11.93;;;7.67;;
19187;SDS011;9726;52.198;8.792;2023-02-08T14:21:00;12.53;;;6.60;;
19187;SDS011;9726;52.198;8.792;2023-02-08T14:23:20;14.80;;;7.27;;
19187;SDS011;9726;52.198;8.792;2023-02-08T14:25:49;12.67;;;7.33;;
19187;SDS011;9726;52.198;8.792;2023-02-08T14:28:22;17.20;;;7.80;;
19187;SDS011;9726;52.198;8.792;2023-02-08T14:30:52;13.17;;;6.70;;
19187;SDS011;9726;52.198;8.792;2023-02-08T14:33:22;21.83;;;6.70;;
19187;SDS011;9726;52.198;8.792;2023-02-08T14:35:52;9.50;;;6.10;;
19187;SDS011;9726;52.198;8.792;2023-02-08T14:45:47;12.90;;;7.10;;
19187;SDS011;9726;52.198;8.792;2023-02-08T14:53:35;14.57;;;8.13;;
19187;SDS011;9726;52.198;8.792;2023-02-08T14:56:06;12.90;;;7.10;;
19187;SDS011;9726;52.198;8.792;2023-02-08T14:58:41;14.07;;;7.57;;
19187;SDS011;9726;52.198;8.792;2023-02-08T15:01:16;17.50;;;7.40;;
19187;SDS011;9726;52.198;8.792;2023-02-08T15:03:45;13.07;;;7.40;;
19187;SDS011;9726;52.198;8.792;2023-02-08T15:06:18;10.90;;;5.73;;
19187;SDS011;9726;52.198;8.792;2023-02-08T15:08:52;14.07;;;6.77;;
19187;SDS011;9726;52.198;8.792;2023-02-08T15:11:21;15.63;;;7.33;;
19187;SDS011;9726;52.198;8.792;2023-02-08T15:13:51;12.60;;;6.40;;
19187;SDS011;9726;52.198;8.792;2023-02-08T15:16:20;14.23;;;7.07;;
19187;SDS011;9726;52.198;8.792;2023-02-08T15:18:49;13.70;;;6.70;;
19187;SDS011;9726;52.198;8.792;2023-02-08T15:21:21;11.23;;;5.93;;
19187;SDS011;9726;52.198;8.792;2023-02-08T15:23:57;15.23;;;5.93;;
19187;SDS011;9726;52.198;8.792;2023-02-08T15:26:25;10.77;;;5.73;;
19187;SDS011;9726;52.198;8.792;2023-02-08T15:28:53;10.00;;;5.97;;
19187;SDS011;9726;52.198;8.792;2023-02-08T15:31:31;12.43;;;6.50;;
19187;SDS011;9726;52.198;8.792;2023-02-08T15:33:59;12.73;;;5.67;;
19187;SDS011;9726;52.198;8.792;2023-02-08T15:36:32;14.93;;;5.83;;
19187;SDS011;9726;52.198;8.792;2023-02-08T15:39:00;9.57;;;5.97;;
19187;SDS011;9726;52.198;8.792;2023-02-08T15:41:30;12.97;;;6.63;;
19187;SDS011;9726;52.198;8.792;2023-02-08T15:46:40;15.07;;;6.47;;
19187;SDS011;9726;52.198;8.792;2023-02-08T15:49:13;13.60;;;6.63;;
19187;SDS011;9726;52.198;8.792;2023-02-08T15:51:42;10.43;;;6.13;;
19187;SDS011;9726;52.198;8.792;2023-02-08T15:54:12;13.43;;;6.87;;
19187;SDS011;9726;52.198;8.792;2023-02-08T15:56:44;16.07;;;7.80;;
19187;SDS011;9726;52.198;8.792;2023-02-08T15:59:15;17.03;;;8.17;;
19187;SDS011;9726;52.198;8.792;2023-02-08T16:01:46;18.33;;;8.40;;
19187;SDS011;9726;52.198;8.792;2023-02-08T16:04:14;16.03;;;6.93;;
19187;SDS011;9726;52.198;8.792;2023-02-08T16:06:46;18.10;;;8.20;;
19187;SDS011;9726;52.198;8.792;2023-02-08T16:09:24;20.20;;;7.50;;
19187;SDS011;9726;52.198;8.792;2023-02-08T16:11:59;18.47;;;7.90;;
19187;SDS011;9726;52.198;8.792;2023-02-08T16:14:27;20.07;;;8.27;;
19187;SDS011;9726;52.198;8.792;2023-02-08T16:17:02;20.83;;;8.17;;
19187;SDS011;9726;52.198;8.792;2023-02-08T16:19:31;25.33;;;8.23;;
19187;SDS011;9726;52.198;8.792;2023-02-08T16:24:44;13.60;;;8.30;;
19187;SDS011;9726;52.198;8.792;2023-02-08T16:29:44;26.60;;;8.33;;
19187;SDS011;9726;52.198;8.792;2023-02-08T16:32:31;21.57;;;9.03;;
19187;SDS011;9726;52.198;8.792;2023-02-08T16:34:59;19.50;;;9.43;;
19187;SDS011;9726;52.198;8.792;2023-02-08T16:37:37;14.20;;;7.63;;
19187;SDS011;9726;52.198;8.792;2023-02-08T16:42:51;18.60;;;8.53;;
19187;SDS011;9726;52.198;8.792;2023-02-08T16:45:19;28.73;;;10.33;;
19187;SDS011;9726;52.198;8.792;2023-02-08T16:47:49;23.43;;;10.47;;
19187;SDS011;9726;52.198;8.792;2023-02-08T16:50:35;21.07;;;10.17;;
19187;SDS011;9726;52.198;8.792;2023-02-08T16:53:04;26.53;;;10.53;;
19187;SDS011;9726;52.198;8.792;2023-02-08T16:55:31;29.13;;;11.53;;
19187;SDS011;9726;52.198;8.792;2023-02-08T16:57:59;25.47;;;9.73;;
19187;SDS011;9726;52.198;8.792;2023-02-08T17:00:28;30.23;;;9.83;;
19187;SDS011;9726;52.198;8.792;2023-02-08T17:02:55;20.10;;;9.40;;
19187;SDS011;9726;52.198;8.792;2023-02-08T17:05:24;20.87;;;9.73;;
19187;SDS011;9726;52.198;8.792;2023-02-08T17:07:52;23.10;;;11.23;;
19187;SDS011;9726;52.198;8.792;2023-02-08T17:10:25;23.13;;;12.57;;
19187;SDS011;9726;52.198;8.792;2023-02-08T17:12:54;27.17;;;13.03;;
19187;SDS011;9726;52.198;8.792;2023-02-08T17:15:42;23.87;;;11.87;;
19187;SDS011;9726;52.198;8.792;2023-02-08T17:18:10;49.20;;;18.10;;
19187;SDS011;9726;52.198;8.792;2023-02-08T17:20:38;41.27;;;18.90;;